»·PEaware :: N212MH 8W5-KYKM

N212MH :: 8W5-KYKM

FLIGHT INFORMATION

Flight Status: Arrived
Operator: Privately registered:
United States
More flights under this callsign
Pilot: Erik A. (17503)
Aircraft: AERMACCHI WARRIOR
(F260)
More flights by this aircraft type
Origin: 8W5 Apex Airpark
United States
Destination: KYKM Yakima Air Term/Mcallister
United States
More flights between these airports :: More routes between these airports
Route: +SEA ELN V25 CIDOG
File this flight plan on PilotEdge
Remarks: Alphabet Challenge Washington Leg #24
Altitude:
(Current/Filed)
11,000ft
Speed:
(Current/Filed)
160kts
Departed: 06-Nov-20 03:32 PM
Arrived: 06-Nov-20 04:34 PM
Distance/Time
Traveled:
111nm/1:02
Distance/Time
To Go:
Arrived

Flight Plot

Page will automatically refresh every two minutes.

Flight plan parsing failed; only flown route is shown


Map Options




Map Legend


Flown Route
Filed Route
Departure Airport
Arrival Airport
Navaid (VOR, NDB)
Fix

Horizontal Profiles

Position Reports

Time Latitude Longitude Heading Altitude Ground
Speed
06-Nov-20 15:04 47.657491 -122.731535 80 501ft 0kts
06-Nov-20 15:05 47.657491 -122.731535 80 501ft 0kts
06-Nov-20 15:07 47.657491 -122.731535 80 501ft 0kts
06-Nov-20 15:08 47.657491 -122.731535 80 501ft 0kts
06-Nov-20 15:09 47.657491 -122.731535 80 501ft 0kts
06-Nov-20 15:10 47.657491 -122.731535 80 501ft 0kts
06-Nov-20 15:11 47.657491 -122.731535 80 501ft 0kts
06-Nov-20 15:12 47.657491 -122.731535 80 501ft 0kts
06-Nov-20 15:13 47.657491 -122.731535 80 501ft 0kts
06-Nov-20 15:14 47.657491 -122.731535 80 501ft 0kts
06-Nov-20 15:15 47.657491 -122.731535 80 501ft 0kts
06-Nov-20 15:16 47.657491 -122.731535 80 501ft 0kts
06-Nov-20 15:17 47.657491 -122.731535 80 501ft 0kts
06-Nov-20 15:18 47.657600 -122.731425 317 500ft 1kts
06-Nov-20 15:19 47.658295 -122.732556 182 531ft 4kts
06-Nov-20 15:20 47.655164 -122.733157 181 511ft 14kts
06-Nov-20 15:21 47.653284 -122.733542 187 509ft 0kts
06-Nov-20 15:22 47.653284 -122.733542 187 509ft 0kts
06-Nov-20 15:23 47.653284 -122.733542 187 509ft 0kts
06-Nov-20 15:24 47.653284 -122.733542 187 509ft 0kts
06-Nov-20 15:24 47.653284 -122.733542 187 509ft 0kts
06-Nov-20 15:26 47.653284 -122.733542 187 509ft 0kts
06-Nov-20 15:26 47.653114 -122.733651 281 508ft 0kts
06-Nov-20 15:28 47.653114 -122.733653 278 508ft 0kts
06-Nov-20 15:28 47.653115 -122.733656 277 508ft 0kts
06-Nov-20 15:29 47.653115 -122.733656 277 508ft 0kts
06-Nov-20 15:30 47.653217 -122.733817 5 508ft 0kts
06-Nov-20 15:31 47.661373 -122.719350 138 1450ft 107kts
06-Nov-20 15:32 47.633839 -122.696417 117 2859ft 129kts
06-Nov-20 15:33 47.615700 -122.649869 122 4193ft 133kts
06-Nov-20 15:34 47.591191 -122.607243 126 5287ft 138kts
06-Nov-20 15:35 47.569433 -122.561293 116 6297ft 138kts
06-Nov-20 15:36 47.544483 -122.517735 127 7238ft 140kts
06-Nov-20 15:37 47.524449 -122.471143 118 8371ft 125kts
06-Nov-20 15:38 47.500134 -122.429177 129 9208ft 134kts
06-Nov-20 15:39 47.472725 -122.390535 138 10066ft 140kts
06-Nov-20 15:40 47.449126 -122.346108 116 10751ft 138kts
06-Nov-20 15:41 47.430322 -122.292551 111 10986ft 160kts
06-Nov-20 15:42 47.416441 -122.226927 101 10935ft 170kts
06-Nov-20 15:43 47.401256 -122.160397 107 11034ft 169kts
06-Nov-20 15:44 47.389144 -122.092377 96 11004ft 177kts
06-Nov-20 15:45 47.375476 -122.022556 109 10934ft 174kts
06-Nov-20 15:46 47.360663 -121.959654 105 10990ft 168kts
06-Nov-20 15:47 47.343233 -121.894649 105 10956ft 170kts
06-Nov-20 15:48 47.329201 -121.827778 99 10934ft 171kts
06-Nov-20 15:49 47.317231 -121.763638 103 11001ft 172kts
06-Nov-20 15:50 47.301769 -121.696338 100 10879ft 174kts
06-Nov-20 15:51 47.287957 -121.628725 106 10878ft 173kts
06-Nov-20 15:52 47.272087 -121.564927 107 11119ft 163kts
06-Nov-20 15:53 47.258572 -121.501039 99 11209ft 166kts
06-Nov-20 15:54 47.246591 -121.434890 102 11108ft 172kts
06-Nov-20 15:55 47.231729 -121.368500 103 11110ft 169kts
06-Nov-20 15:56 47.216856 -121.301747 103 11109ft 172kts
06-Nov-20 15:57 47.202063 -121.235191 104 11113ft 170kts
06-Nov-20 15:58 47.186891 -121.167675 105 11106ft 173kts
06-Nov-20 15:59 47.171902 -121.101747 103 11099ft 171kts
06-Nov-20 16:00 47.157051 -121.035273 102 11093ft 170kts
06-Nov-20 16:01 47.142321 -120.969811 104 11080ft 169kts
06-Nov-20 16:02 47.127419 -120.903745 103 11082ft 170kts
06-Nov-20 16:03 47.112238 -120.838236 103 11083ft 168kts
06-Nov-20 16:04 47.097453 -120.773140 103 11084ft 167kts
06-Nov-20 16:05 47.082537 -120.708123 103 11083ft 168kts
06-Nov-20 16:06 47.067586 -120.643415 104 11083ft 167kts
06-Nov-20 16:07 47.053277 -120.582385 103 11081ft 151kts
06-Nov-20 16:08 47.040112 -120.525288 103 11083ft 146kts
06-Nov-20 16:09 47.026393 -120.469159 118 11076ft 149kts
06-Nov-20 16:10 46.983897 -120.457016 174 10868ft 176kts
06-Nov-20 16:11 46.932103 -120.455278 174 10092ft 192kts
06-Nov-20 16:12 46.878609 -120.453726 174 9303ft 191kts
06-Nov-20 16:13 46.825202 -120.452092 175 8491ft 192kts
06-Nov-20 16:14 46.772263 -120.445435 143 7661ft 188kts
06-Nov-20 16:15 46.761884 -120.385760 68 7256ft 149kts
06-Nov-20 16:16 46.775251 -120.332782 91 7006ft 143kts
06-Nov-20 16:17 46.756662 -120.280111 121 6640ft 153kts
06-Nov-20 16:18 46.720673 -120.244735 152 6299ft 158kts
06-Nov-20 16:19 46.679679 -120.220780 144 6184ft 157kts
06-Nov-20 16:20 46.649622 -120.176586 121 6161ft 153kts
06-Nov-20 16:21 46.620238 -120.131209 145 6119ft 158kts
06-Nov-20 16:22 46.575752 -120.121731 189 6072ft 164kts
06-Nov-20 16:23 46.532738 -120.143288 208 6048ft 162kts
06-Nov-20 16:24 46.496199 -120.176993 247 5826ft 148kts
06-Nov-20 16:25 46.492967 -120.233429 286 5355ft 142kts
06-Nov-20 16:26 46.503792 -120.287504 298 4614ft 135kts
06-Nov-20 16:27 46.518536 -120.338034 296 3732ft 129kts
06-Nov-20 16:28 46.528554 -120.382462 285 3326ft 105kts
06-Nov-20 16:29 46.536902 -120.422900 297 2657ft 104kts
06-Nov-20 16:30 46.547357 -120.462313 293 2024ft 104kts
06-Nov-20 16:31 46.557673 -120.500770 292 1489ft 99kts
06-Nov-20 16:32 46.566707 -120.536399 287 1059ft 62kts
06-Nov-20 16:33 46.569965 -120.542749 308 1072ft 12kts
06-Nov-20 16:34 46.570326 -120.542666 90 1073ft 0kts
06-Nov-20 16:35 46.570326 -120.542666 90 1073ft 0kts
06-Nov-20 16:36 46.570326 -120.542666 90 1073ft 0kts
06-Nov-20 16:37 46.570326 -120.542666 90 1073ft 0kts
06-Nov-20 16:38 46.570326 -120.542666 90 1073ft 0kts
06-Nov-20 16:39 46.570326 -120.542666 90 1073ft 0kts
06-Nov-20 16:40 46.570326 -120.542666 90 1073ft 0kts
06-Nov-20 16:41 46.570326 -120.542666 90 1073ft 0kts
06-Nov-20 16:42 46.570326 -120.542666 90 1073ft 0kts
06-Nov-20 16:43 46.570326 -120.542666 90 1073ft 0kts
06-Nov-20 16:44 46.570326 -120.542666 90 1073ft 0kts
06-Nov-20 16:45 46.570326 -120.542666 90 1073ft 0kts
06-Nov-20 16:46 46.570326 -120.542666 90 1073ft 0kts
06-Nov-20 16:47 46.570326 -120.542666 90 1073ft 0kts

Navigation Log

Ident Type
Flight plan parsing failed, navigation log unavailable